Time;durP1;ratioP1;P1;durP2;ratioP2;P2;SDS_P1;SDS_P2;PMS_P1;PMS_P2;Temp;Humidity;BMP_temperature;BMP_pressure;BME280_temperature;BME280_humidity;BME280_pressure;Samples;Min_cycle;Max_cycle;Signal;HPM_P1;HPM_P2
2021/11/13 00:02:03;;;;;;;27.90;20.33;;;8.70;90.10;;;;;;5053954;28;20445;-71
2021/11/13 00:04:29;;;;;;;26.37;18.30;;;8.70;90.10;;;;;;5053904;28;20480;-71
2021/11/13 00:06:56;;;;;;;22.07;17.43;;;8.80;90.20;;;;;;5054383;28;20456;-71
2021/11/13 00:09:24;;;;;;;20.80;16.10;;;8.80;90.30;;;;;;5054004;28;20560;-71
2021/11/13 00:11:51;;;;;;;21.13;16.40;;;8.70;90.40;;;;;;5053979;28;20493;-71
2021/11/13 00:14:20;;;;;;;22.03;15.83;;;8.70;90.50;;;;;;5053892;28;20482;-71
2021/11/13 00:16:47;;;;;;;19.73;15.20;;;8.70;90.60;;;;;;5053385;28;20449;-71
2021/11/13 00:19:13;;;;;;;24.33;16.37;;;8.70;90.70;;;;;;5054610;28;20445;-71
2021/11/13 00:21:40;;;;;;;19.07;15.40;;;8.70;90.80;;;;;;5053840;28;20809;-70
2021/11/13 00:24:08;;;;;;;24.93;17.07;;;8.80;90.90;;;;;;5053691;28;20476;-71
2021/11/13 00:26:36;;;;;;;22.40;16.33;;;8.70;90.80;;;;;;5053353;28;20460;-71
2021/11/13 00:29:03;;;;;;;18.43;14.77;;;8.80;90.90;;;;;;5053721;28;20441;-71
2021/11/13 00:31:29;;;;;;;18.77;15.10;;;8.80;91.00;;;;;;5053571;28;20489;-71
2021/11/13 00:33:56;;;;;;;21.70;15.67;;;8.80;91.00;;;;;;5053568;28;20492;-71
2021/11/13 00:36:23;;;;;;;19.43;14.60;;;8.80;91.10;;;;;;5053609;28;20499;-71
2021/11/13 00:38:50;;;;;;;21.00;15.63;;;8.80;91.20;;;;;;5053572;28;20446;-71
2021/11/13 00:41:17;;;;;;;18.70;14.53;;;8.80;91.30;;;;;;5054040;28;20449;-71
2021/11/13 00:43:45;;;;;;;17.90;14.27;;;8.80;91.30;;;;;;5053162;28;20504;-71
2021/11/13 00:46:12;;;;;;;17.10;14.27;;;8.80;91.40;;;;;;5053656;28;20437;-71
2021/11/13 00:48:39;;;;;;;16.10;12.80;;;8.80;91.40;;;;;;5053414;28;20450;-71
2021/11/13 00:51:06;;;;;;;19.00;14.80;;;8.80;91.50;;;;;;5053003;28;21028;-71
2021/11/13 00:53:33;;;;;;;18.43;15.73;;;8.90;91.60;;;;;;5053520;28;20469;-71
2021/11/13 00:56:00;;;;;;;15.97;13.80;;;8.90;91.70;;;;;;5053410;28;20481;-71
2021/11/13 00:58:28;;;;;;;15.70;13.40;;;8.90;91.80;;;;;;5053526;28;20813;-71
2021/11/13 01:00:56;;;;;;;14.93;13.20;;;8.90;91.90;;;;;;5053480;28;20441;-71
2021/11/13 01:03:23;;;;;;;15.53;12.70;;;9.00;92.10;;;;;;5053150;28;20470;-71
2021/11/13 01:05:50;;;;;;;16.20;12.57;;;8.90;92.10;;;;;;5053325;28;20450;-71
2021/11/13 01:08:17;;;;;;;14.43;12.67;;;8.90;92.40;;;;;;5053402;28;20548;-71
2021/11/13 01:10:44;;;;;;;17.50;13.20;;;8.90;92.50;;;;;;5053301;28;20899;-71
2021/11/13 01:13:11;;;;;;;18.43;13.50;;;8.90;92.70;;;;;;5052877;28;20449;-71
2021/11/13 01:15:38;;;;;;;16.67;13.13;;;8.90;92.80;;;;;;5052913;28;20944;-71
2021/11/13 01:18:06;;;;;;;17.00;12.80;;;8.90;92.80;;;;;;5053109;28;20459;-71
2021/11/13 01:20:33;;;;;;;16.93;12.40;;;9.00;92.80;;;;;;5052793;28;20945;-71
2021/11/13 01:23:01;;;;;;;17.30;12.70;;;9.00;92.80;;;;;;5053039;28;20457;-71
2021/11/13 01:25:28;;;;;;;16.93;13.57;;;9.00;92.90;;;;;;5052889;28;20429;-71
2021/11/13 01:27:55;;;;;;;16.37;11.93;;;9.10;93.20;;;;;;5055348;28;20449;-71
2021/11/13 01:30:23;;;;;;;15.93;11.43;;;9.00;93.60;;;;;;5056389;28;20524;-71
2021/11/13 01:32:50;;;;;;;14.93;13.43;;;9.10;93.60;;;;;;5056763;28;20430;-71
2021/11/13 01:35:21;;;;;;;17.27;13.10;;;9.10;93.90;;;;;;5056353;28;20465;-71
2021/11/13 01:37:48;;;;;;;16.17;11.60;;;9.10;94.20;;;;;;5056539;28;20442;-71
2021/11/13 01:40:19;;;;;;;17.07;13.07;;;9.10;94.50;;;;;;5056521;28;20457;-71
2021/11/13 01:42:47;;;;;;;18.10;12.93;;;9.10;94.70;;;;;;5056286;28;20453;-71
2021/11/13 01:45:17;;;;;;;18.20;13.23;;;9.10;94.90;;;;;;5056224;28;20465;-71
2021/11/13 01:47:45;;;;;;;16.07;13.77;;;9.10;95.00;;;;;;5056486;28;20448;-71
2021/11/13 01:50:15;;;;;;;15.93;12.97;;;9.10;95.00;;;;;;5056975;28;20456;-71
2021/11/13 01:52:44;;;;;;;16.20;11.97;;;9.10;95.10;;;;;;5056494;28;20496;-71
2021/11/13 01:55:11;;;;;;;16.13;13.73;;;9.10;95.10;;;;;;5056592;28;20460;-71
2021/11/13 01:57:45;;;;;;;17.50;13.13;;;9.10;95.20;;;;;;5056233;28;20445;-71
2021/11/13 02:00:16;;;;;;;18.53;13.90;;;9.10;95.30;;;;;;5056136;28;20536;-71
2021/11/13 02:02:43;;;;;;;18.07;12.73;;;9.10;95.40;;;;;;5055974;28;20914;-70
2021/11/13 02:05:10;;;;;;;19.97;12.83;;;9.10;95.50;;;;;;5056000;28;20485;-71
2021/11/13 02:07:37;;;;;;;21.57;13.43;;;9.20;95.70;;;;;;5056095;28;20503;-71
2021/11/13 02:10:07;;;;;;;16.90;12.97;;;9.10;95.70;;;;;;5055983;28;20449;-70
2021/11/13 02:12:34;;;;;;;17.30;12.60;;;9.20;95.80;;;;;;5055651;28;21002;-70
2021/11/13 02:15:01;;;;;;;18.00;12.80;;;9.20;95.90;;;;;;5055713;28;20468;-70
2021/11/13 02:17:27;;;;;;;15.80;12.90;;;9.20;96.10;;;;;;5055818;28;20452;-70
2021/11/13 02:19:56;;;;;;;15.97;12.87;;;9.30;96.30;;;;;;5055714;28;20446;-71
2021/11/13 02:22:24;;;;;;;16.27;13.50;;;9.20;96.10;;;;;;5055736;28;20442;-71
2021/11/13 02:24:51;;;;;;;16.30;13.17;;;9.30;96.20;;;;;;5055212;28;20479;-71
2021/11/13 02:27:17;;;;;;;15.43;11.93;;;9.20;96.40;;;;;;5055600;28;20441;-71
2021/11/13 02:29:44;;;;;;;18.40;14.20;;;9.30;96.50;;;;;;5055232;28;20945;-71
2021/11/13 02:32:12;;;;;;;19.03;14.50;;;9.30;96.40;;;;;;5055380;28;20840;-71
2021/11/13 02:34:39;;;;;;;17.23;13.63;;;9.20;96.40;;;;;;5055566;28;20466;-71
2021/11/13 02:37:07;;;;;;;19.60;13.50;;;9.20;96.50;;;;;;5055388;28;20445;-71
2021/11/13 02:39:36;;;;;;;20.93;14.00;;;9.20;96.60;;;;;;5054776;28;20457;-71
2021/11/13 02:42:04;;;;;;;15.73;13.87;;;9.20;96.70;;;;;;5054996;28;20826;-71
2021/11/13 02:44:31;;;;;;;17.10;14.30;;;9.20;96.60;;;;;;5054952;28;20488;-71
2021/11/13 02:46:58;;;;;;;19.37;14.00;;;9.20;96.70;;;;;;5055293;28;20446;-71
2021/11/13 02:49:27;;;;;;;20.50;14.50;;;9.20;96.80;;;;;;5055208;28;20441;-71
2021/11/13 02:51:54;;;;;;;19.20;14.70;;;9.20;97.00;;;;;;5054938;28;20482;-71
2021/11/13 02:54:22;;;;;;;25.60;15.10;;;9.20;97.10;;;;;;5054948;28;20507;-71
2021/11/13 02:56:49;;;;;;;22.10;14.80;;;9.10;97.10;;;;;;5055166;28;20446;-71
2021/11/13 02:59:16;;;;;;;23.27;14.23;;;9.20;97.30;;;;;;5054971;28;20452;-71
2021/11/13 03:01:42;;;;;;;22.60;15.57;;;9.20;97.30;;;;;;5054964;28;20441;-71
2021/11/13 03:04:09;;;;;;;23.20;16.60;;;9.20;97.40;;;;;;5054533;28;20461;-71
2021/11/13 03:06:36;;;;;;;21.07;15.40;;;9.30;97.40;;;;;;5054855;28;20450;-71
2021/11/13 03:09:03;;;;;;;22.00;17.53;;;9.20;97.40;;;;;;5054584;28;20453;-71
2021/11/13 03:11:31;;;;;;;25.10;17.43;;;9.30;97.30;;;;;;5054646;28;20900;-70
2021/11/13 03:13:58;;;;;;;23.47;17.03;;;9.30;97.10;;;;;;5054860;28;20472;-71
2021/11/13 03:16:25;;;;;;;24.90;17.10;;;9.30;97.10;;;;;;5054658;28;20449;-70
2021/11/13 03:18:51;;;;;;;20.00;15.03;;;9.30;97.00;;;;;;5054571;28;20456;-70
2021/11/13 03:21:19;;;;;;;21.43;15.80;;;9.30;97.00;;;;;;5054295;28;20441;-70
2021/11/13 03:23:47;;;;;;;22.20;16.53;;;9.30;96.90;;;;;;5054678;28;20462;-70
2021/11/13 03:26:17;;;;;;;22.77;16.53;;;9.40;97.00;;;;;;5054356;28;20524;-70
2021/11/13 03:28:49;;;;;;;24.23;17.27;;;9.40;96.90;;;;;;5054385;28;20450;-71
2021/11/13 03:31:16;;;;;;;22.40;17.00;;;9.30;96.90;;;;;;5054237;28;20465;-71
2021/11/13 03:33:43;;;;;;;24.60;16.73;;;9.40;97.10;;;;;;5054104;28;20473;-71
2021/11/13 03:36:10;;;;;;;26.90;17.63;;;9.40;97.10;;;;;;5054180;28;20460;-71
2021/11/13 03:38:39;;;;;;;28.13;17.73;;;9.40;97.20;;;;;;5054146;28;20515;-71
2021/11/13 03:41:06;;;;;;;25.90;17.00;;;9.40;97.40;;;;;;5053899;28;20945;-71
2021/11/13 03:43:34;;;;;;;29.20;18.97;;;9.30;97.50;;;;;;5053678;28;20469;-71
2021/11/13 03:46:02;;;;;;;24.63;16.77;;;9.30;97.50;;;;;;5053696;28;20803;-71
2021/11/13 03:48:29;;;;;;;24.33;17.00;;;9.30;97.60;;;;;;5053715;28;20453;-71
2021/11/13 03:50:56;;;;;;;26.50;17.20;;;9.30;97.80;;;;;;5052871;28;20441;-71
2021/11/13 03:53:23;;;;;;;29.63;16.60;;;9.30;97.90;;;;;;5053724;28;20465;-71
2021/11/13 03:55:50;;;;;;;28.80;17.90;;;9.40;98.10;;;;;;5053906;28;20449;-71
2021/11/13 03:58:17;;;;;;;21.73;17.17;;;9.40;98.20;;;;;;5053888;28;20521;-71
2021/11/13 04:00:44;;;;;;;21.83;16.23;;;9.40;98.20;;;;;;5053565;28;20971;-71
2021/11/13 04:03:12;;;;;;;25.17;16.37;;;9.50;98.40;;;;;;5053482;28;20524;-71
2021/11/13 04:05:39;;;;;;;21.20;16.57;;;9.50;98.40;;;;;;5053820;28;20469;-71
2021/11/13 04:08:06;;;;;;;21.17;14.27;;;9.50;98.90;;;;;;5053332;28;20949;-71
2021/11/13 04:10:33;;;;;;;25.00;14.63;;;9.50;98.60;;;;;;5053661;28;20454;-71
2021/11/13 04:13:00;;;;;;;16.37;13.70;;;9.50;98.70;;;;;;5053190;28;20999;-71
2021/11/13 04:15:28;;;;;;;21.67;15.10;;;9.60;98.80;;;;;;5053767;28;20448;-71
2021/11/13 04:17:55;;;;;;;24.60;14.37;;;9.60;98.70;;;;;;5053645;28;20477;-71
2021/11/13 04:20:23;;;;;;;20.57;13.33;;;9.60;98.70;;;;;;5053612;28;20449;-71
2021/11/13 04:22:51;;;;;;;18.80;12.87;;;9.60;98.70;;;;;;5053706;28;20461;-71
2021/11/13 04:25:18;;;;;;;24.00;14.27;;;9.60;98.80;;;;;;5053582;28;20807;-71
2021/11/13 04:27:45;;;;;;;16.77;12.53;;;9.70;98.80;;;;;;5053506;28;20445;-71
2021/11/13 04:30:14;;;;;;;19.27;13.87;;;9.70;98.80;;;;;;5053259;28;20964;-71
2021/11/13 04:32:41;;;;;;;20.30;13.67;;;9.70;98.60;;;;;;5053414;28;20854;-71
2021/11/13 04:35:18;;;;;;;17.93;14.23;;;9.70;98.70;;;;;;5053211;28;20845;-70
2021/11/13 04:37:51;;;;;;;17.63;13.10;;;9.70;98.90;;;;;;5053295;28;20437;-70
2021/11/13 04:40:19;;;;;;;20.13;13.33;;;9.70;99.10;;;;;;5053127;28;20433;-70
2021/11/13 04:42:46;;;;;;;21.67;15.47;;;9.70;99.20;;;;;;5053079;28;20476;-70
2021/11/13 04:45:13;;;;;;;18.70;12.90;;;9.70;99.00;;;;;;5052987;28;20470;-70
2021/11/13 04:47:40;;;;;;;20.00;13.60;;;9.80;99.20;;;;;;5053262;28;20450;-70
2021/11/13 04:50:09;;;;;;;18.50;12.70;;;9.80;99.20;;;;;;5053254;28;20445;-70
2021/11/13 04:52:36;;;;;;;19.30;13.00;;;9.80;99.20;;;;;;5053109;28;20485;-70
2021/11/13 04:55:05;;;;;;;18.33;11.70;;;9.80;99.30;;;;;;5053066;28;20465;-71
2021/11/13 04:57:32;;;;;;;16.53;11.40;;;9.90;99.50;;;;;;5052964;28;20508;-71
2021/11/13 04:59:59;;;;;;;16.40;10.90;;;9.90;99.60;;;;;;5053066;28;20452;-71
2021/11/13 05:02:26;;;;;;;12.30;9.87;;;9.90;99.80;;;;;;5055175;28;20442;-71
2021/11/13 05:04:54;;;;;;;15.50;10.83;;;10.00;99.20;;;;;;5057137;28;20470;-71
2021/11/13 05:07:23;;;;;;;16.83;10.17;;;10.00;99.30;;;;;;5057159;28;20457;-71
2021/11/13 05:09:50;;;;;;;12.47;9.40;;;10.00;99.40;;;;;;5057075;28;20445;-71
2021/11/13 05:12:18;;;;;;;15.67;10.37;;;10.10;99.60;;;;;;5056942;28;20481;-71
2021/11/13 05:14:45;;;;;;;11.47;8.73;;;10.10;99.50;;;;;;5056934;28;20465;-71
2021/11/13 05:17:12;;;;;;;14.20;9.20;;;10.10;99.60;;;;;;5056959;28;20835;-70
2021/11/13 05:19:38;;;;;;;10.40;8.17;;;10.10;99.70;;;;;;5056974;28;20452;-70
2021/11/13 05:22:07;;;;;;;11.30;8.33;;;10.20;99.70;;;;;;5056644;28;20817;-70
2021/11/13 05:24:34;;;;;;;8.53;7.23;;;10.20;99.60;;;;;;5056704;28;20476;-70
2021/11/13 05:27:02;;;;;;;11.33;8.33;;;10.20;99.70;;;;;;5056720;28;20449;-70
2021/11/13 05:29:30;;;;;;;8.07;6.93;;;10.30;99.80;;;;;;5056562;28;20453;-70
2021/11/13 05:31:57;;;;;;;8.83;6.50;;;10.30;99.70;;;;;;5056519;28;20485;-70
2021/11/13 05:34:24;;;;;;;12.40;7.80;;;10.30;99.70;;;;;;5056493;28;20835;-71
2021/11/13 05:36:50;;;;;;;7.50;6.73;;;10.30;99.80;;;;;;5056519;28;20449;-70
2021/11/13 05:39:17;;;;;;;11.90;7.27;;;10.40;99.90;;;;;;5056502;28;20449;-70
2021/11/13 05:41:44;;;;;;;7.60;6.80;;;10.40;99.90;;;;;;5056140;28;20453;-70
2021/11/13 05:44:11;;;;;;;10.77;6.60;;;10.40;99.80;;;;;;5056178;28;20484;-70
2021/11/13 05:46:39;;;;;;;11.43;6.53;;;10.40;99.70;;;;;;5056362;28;20442;-70
2021/11/13 05:49:06;;;;;;;7.87;6.03;;;10.50;99.60;;;;;;5055924;28;20445;-70
2021/11/13 05:51:33;;;;;;;6.93;6.33;;;10.50;99.60;;;;;;5056637;28;20447;-71
2021/11/13 05:54:00;;;;;;;7.03;5.97;;;10.50;99.60;;;;;;5056213;28;20465;-70
2021/11/13 05:56:27;;;;;;;9.83;6.30;;;10.50;99.50;;;;;;5056179;28;20441;-70
2021/11/13 05:58:54;;;;;;;9.47;6.50;;;10.50;99.60;;;;;;5056175;28;20460;-70
2021/11/13 06:01:21;;;;;;;8.83;6.00;;;10.50;99.60;;;;;;5056093;28;20441;-70
2021/11/13 06:03:49;;;;;;;8.43;6.43;;;10.50;99.60;;;;;;5055996;28;20535;-70
2021/11/13 06:06:16;;;;;;;7.93;5.90;;;10.50;99.60;;;;;;5055880;28;20446;-71
2021/11/13 06:08:43;;;;;;;8.80;4.87;;;10.50;99.70;;;;;;5056041;28;20434;-71
2021/11/13 06:11:09;;;;;;;6.37;5.67;;;10.50;99.70;;;;;;5055939;28;20532;-71
2021/11/13 06:13:37;;;;;;;6.07;4.87;;;10.50;99.80;;;;;;5054295;28;20481;-71
2021/11/13 06:16:06;;;;;;;5.80;4.80;;;10.50;99.90;;;;;;5055755;28;20477;-71
2021/11/13 06:18:33;;;;;;;6.60;5.30;;;10.50;99.90;;;;;;5055482;28;20454;-71
2021/11/13 06:21:01;;;;;;;6.67;5.13;;;10.50;99.90;;;;;;5055784;28;20442;-71
2021/11/13 06:23:28;;;;;;;4.97;4.57;;;10.60;99.90;;;;;;5055508;28;20465;-71
2021/11/13 06:25:55;;;;;;;4.90;3.80;;;10.60;99.90;;;;;;5055631;28;20472;-71
2021/11/13 06:28:21;;;;;;;4.47;4.07;;;10.60;99.90;;;;;;5055702;28;20445;-71
2021/11/13 06:30:48;;;;;;;4.60;4.20;;;10.60;99.90;;;;;;5055600;28;20793;-71
2021/11/13 06:33:15;;;;;;;4.20;3.63;;;10.60;99.90;;;;;;5055351;28;20553;-71
2021/11/13 06:35:41;;;;;;;4.10;3.70;;;10.60;99.90;;;;;;5055350;28;20449;-71
2021/11/13 06:38:10;;;;;;;4.17;3.87;;;10.60;99.90;;;;;;5055356;28;20449;-71
2021/11/13 06:40:36;;;;;;;3.83;3.53;;;10.60;99.90;;;;;;5055834;28;20547;-71
2021/11/13 06:43:04;;;;;;;4.60;3.50;;;10.70;99.90;;;;;;5054765;28;20864;-71
2021/11/13 06:45:32;;;;;;;5.03;3.87;;;10.60;99.90;;;;;;5055339;28;20441;-71
2021/11/13 06:47:59;;;;;;;4.57;3.80;;;10.60;99.90;;;;;;5054910;28;20445;-71
2021/11/13 06:50:25;;;;;;;3.97;3.63;;;10.70;99.90;;;;;;5055173;28;20453;-71
2021/11/13 06:52:52;;;;;;;5.63;5.13;;;10.70;99.90;;;;;;5055047;28;20489;-71
2021/11/13 06:55:20;;;;;;;5.83;4.90;;;10.70;99.90;;;;;;5055036;28;20465;-71
2021/11/13 06:57:47;;;;;;;6.93;6.30;;;10.70;99.90;;;;;;5055035;28;20454;-71
2021/11/13 07:00:16;;;;;;;7.27;6.40;;;10.70;99.80;;;;;;5054835;28;20445;-71
2021/11/13 07:02:44;;;;;;;6.57;5.60;;;10.70;99.70;;;;;;5054653;28;20953;-71
2021/11/13 07:05:12;;;;;;;5.93;5.33;;;10.70;99.80;;;;;;5054791;28;20484;-71
2021/11/13 07:07:40;;;;;;;6.60;6.00;;;10.70;99.80;;;;;;5054817;28;20440;-71
2021/11/13 07:10:10;;;;;;;5.50;5.00;;;10.80;99.80;;;;;;5054733;28;20446;-71
2021/11/13 07:12:39;;;;;;;6.00;5.50;;;10.80;99.80;;;;;;5054602;28;20472;-71
2021/11/13 07:15:07;;;;;;;5.63;5.03;;;10.80;99.80;;;;;;5054510;28;20461;-71
2021/11/13 07:17:34;;;;;;;5.50;5.07;;;10.80;99.60;;;;;;5054574;28;20819;-71
2021/11/13 07:20:01;;;;;;;5.97;5.47;;;10.80;99.80;;;;;;5054246;28;20793;-71
2021/11/13 07:22:28;;;;;;;6.43;5.80;;;10.80;99.80;;;;;;5054446;28;20441;-71
2021/11/13 07:24:55;;;;;;;6.97;5.43;;;10.90;99.80;;;;;;5054256;28;20465;-71
2021/11/13 07:27:22;;;;;;;7.53;6.30;;;10.90;99.70;;;;;;5054436;28;20450;-71
2021/11/13 07:29:59;;;;;;;6.00;5.47;;;10.90;99.70;;;;;;5054431;28;20445;-71
2021/11/13 07:32:26;;;;;;;6.67;5.57;;;10.90;99.70;;;;;;5054380;28;20469;-71
2021/11/13 07:34:53;;;;;;;6.90;5.80;;;10.90;99.70;;;;;;5054053;28;20465;-71
2021/11/13 07:37:21;;;;;;;5.80;4.77;;;10.90;99.40;;;;;;5054245;28;20457;-71
2021/11/13 07:39:47;;;;;;;7.40;5.60;;;11.00;99.50;;;;;;5053995;28;20822;-71
2021/11/13 07:42:14;;;;;;;7.57;5.20;;;11.00;99.40;;;;;;5053661;28;20973;-71
2021/11/13 07:44:41;;;;;;;5.60;5.10;;;11.00;99.40;;;;;;5053998;28;20934;-71
2021/11/13 07:47:09;;;;;;;9.50;5.50;;;11.10;99.40;;;;;;5053951;28;20450;-71
2021/11/13 07:49:37;;;;;;;6.20;5.63;;;11.10;99.40;;;;;;5053946;28;20452;-71
2021/11/13 07:52:05;;;;;;;6.47;5.80;;;11.10;99.50;;;;;;5053772;28;20441;-71
2021/11/13 07:54:32;;;;;;;5.90;5.33;;;11.20;99.50;;;;;;5053775;28;20465;-71
2021/11/13 07:56:58;;;;;;;6.30;5.70;;;11.20;99.50;;;;;;5053865;28;20450;-71
2021/11/13 07:59:25;;;;;;;6.67;5.73;;;11.20;99.50;;;;;;5054183;28;20453;-71
2021/11/13 08:01:52;;;;;;;7.33;5.30;;;11.10;99.50;;;;;;5053800;28;20457;-70
2021/11/13 08:04:20;;;;;;;5.90;5.30;;;11.20;99.40;;;;;;5053661;28;20462;-70
2021/11/13 08:06:47;;;;;;;11.20;5.27;;;11.20;99.30;;;;;;5053690;28;20437;-70
2021/11/13 08:09:13;;;;;;;6.57;4.53;;;11.20;99.40;;;;;;5053496;28;20472;-71
2021/11/13 08:11:40;;;;;;;5.67;5.17;;;11.20;99.40;;;;;;5053619;28;20453;-71
2021/11/13 08:14:07;;;;;;;4.97;4.30;;;11.20;99.40;;;;;;5053099;28;20485;-70
2021/11/13 08:16:35;;;;;;;5.43;4.93;;;11.20;99.40;;;;;;5053586;28;20452;-70
2021/11/13 08:19:02;;;;;;;5.63;5.00;;;11.20;99.30;;;;;;5053440;28;20527;-70
2021/11/13 08:21:30;;;;;;;4.87;4.37;;;11.30;99.40;;;;;;5053044;28;20441;-70
2021/11/13 08:23:58;;;;;;;6.13;4.43;;;11.30;99.30;;;;;;5053347;28;20561;-70
2021/11/13 08:26:25;;;;;;;5.07;4.57;;;11.30;99.30;;;;;;5053405;28;20429;-70
2021/11/13 08:28:52;;;;;;;4.13;3.80;;;11.30;99.40;;;;;;5053343;28;20454;-70
2021/11/13 08:31:19;;;;;;;4.83;4.20;;;11.30;99.20;;;;;;5052959;28;20449;-70
2021/11/13 08:33:46;;;;;;;4.63;4.10;;;11.40;99.30;;;;;;5053172;28;20485;-70
2021/11/13 08:36:12;;;;;;;4.80;4.10;;;11.40;99.30;;;;;;5052623;28;20450;-71
2021/11/13 08:38:41;;;;;;;4.43;4.03;;;11.40;99.10;;;;;;5053122;28;20441;-71
2021/11/13 08:41:08;;;;;;;4.73;4.23;;;11.40;99.10;;;;;;5052771;28;20972;-71
2021/11/13 08:43:34;;;;;;;8.13;4.50;;;11.40;99.10;;;;;;5052728;28;20485;-70
2021/11/13 08:46:01;;;;;;;4.37;4.07;;;11.50;99.10;;;;;;5053038;28;20452;-70
2021/11/13 08:48:28;;;;;;;4.70;3.83;;;11.50;99.00;;;;;;5053054;28;20430;-70
2021/11/13 08:50:54;;;;;;;4.67;4.00;;;11.50;99.00;;;;;;5053124;28;20440;-70
2021/11/13 08:53:21;;;;;;;3.53;3.23;;;11.50;98.90;;;;;;5053163;28;20851;-70
2021/11/13 08:55:50;;;;;;;5.00;4.50;;;11.50;98.90;;;;;;5053330;28;20798;-70
2021/11/13 08:58:16;;;;;;;4.00;3.60;;;11.50;98.90;;;;;;5053012;28;20452;-70
2021/11/13 09:00:45;;;;;;;5.07;3.80;;;11.50;99.10;;;;;;5053030;28;20452;-71
2021/11/13 09:03:17;;;;;;;9.40;4.13;;;11.60;99.20;;;;;;5052783;28;20449;-71
2021/11/13 09:05:44;;;;;;;5.50;3.90;;;11.60;99.10;;;;;;5052700;28;20909;-71
2021/11/13 09:08:11;;;;;;;5.70;3.90;;;11.70;99.20;;;;;;5053024;28;20457;-71
2021/11/13 09:10:40;;;;;;;4.40;4.00;;;11.80;99.00;;;;;;5052951;28;20449;-71
2021/11/13 09:13:10;;;;;;;4.67;3.50;;;11.80;99.00;;;;;;5052838;28;20535;-71
2021/11/13 09:15:38;;;;;;;3.80;3.50;;;12.00;98.90;;;;;;5052843;28;20438;-71
2021/11/13 09:18:05;;;;;;;3.60;3.30;;;12.00;98.80;;;;;;5052611;28;20445;-70
2021/11/13 09:20:32;;;;;;;2.77;2.53;;;12.00;98.40;;;;;;5052528;28;20457;-70
2021/11/13 09:22:59;;;;;;;4.40;3.20;;;12.10;98.40;;;;;;5052287;28;20446;-70
2021/11/13 09:25:26;;;;;;;4.60;3.60;;;12.10;98.40;;;;;;5052446;28;20816;-70
2021/11/13 09:27:53;;;;;;;4.07;3.20;;;12.20;98.10;;;;;;5052477;28;20445;-70
2021/11/13 09:30:25;;;;;;;3.50;3.20;;;12.20;98.00;;;;;;5052627;28;20472;-70
2021/11/13 09:32:53;;;;;;;3.03;2.80;;;12.30;97.80;;;;;;5053069;28;20434;-70
2021/11/13 09:35:20;;;;;;;3.47;3.20;;;12.30;97.70;;;;;;5052340;28;20466;-71
2021/11/13 09:37:47;;;;;;;3.47;3.17;;;12.30;97.80;;;;;;5052548;28;20804;-71
2021/11/13 09:40:16;;;;;;;7.33;3.23;;;12.30;97.90;;;;;;5052440;28;20472;-71
2021/11/13 09:42:44;;;;;;;3.60;3.30;;;12.30;98.00;;;;;;5052283;28;20461;-71
2021/11/13 09:45:11;;;;;;;3.50;3.20;;;12.40;98.00;;;;;;5052100;28;20561;-71
2021/11/13 09:47:40;;;;;;;4.23;3.33;;;12.50;97.90;;;;;;5053266;28;20792;-71
2021/11/13 09:50:08;;;;;;;3.70;3.40;;;12.50;97.60;;;;;;5055811;28;20960;-71
2021/11/13 09:52:35;;;;;;;3.53;3.23;;;12.60;97.50;;;;;;5056119;28;20437;-71
2021/11/13 09:55:03;;;;;;;5.27;4.00;;;12.70;97.40;;;;;;5055861;28;20488;-71
2021/11/13 09:57:30;;;;;;;3.80;3.30;;;12.80;97.30;;;;;;5055935;28;20445;-71
2021/11/13 09:59:57;;;;;;;4.67;3.90;;;12.90;97.20;;;;;;5055899;28;20541;-71
2021/11/13 10:02:24;;;;;;;4.00;3.70;;;13.00;97.00;;;;;;5055863;28;20456;-71
2021/11/13 10:04:52;;;;;;;4.93;3.80;;;13.00;96.70;;;;;;5055727;28;20472;-71
2021/11/13 10:07:19;;;;;;;4.40;4.00;;;13.00;96.20;;;;;;5055389;28;20956;-71
2021/11/13 10:09:49;;;;;;;4.97;4.00;;;13.00;96.30;;;;;;5055343;28;20959;-71
2021/11/13 10:12:16;;;;;;;4.83;3.67;;;12.90;96.40;;;;;;5055678;28;20460;-71
2021/11/13 10:14:44;;;;;;;5.10;4.17;;;13.00;96.50;;;;;;5055490;28;20489;-71
2021/11/13 10:17:19;;;;;;;5.60;4.33;;;13.00;96.40;;;;;;5055621;28;20453;-71
2021/11/13 10:19:47;;;;;;;4.70;4.30;;;13.10;96.50;;;;;;5055187;28;20426;-71
2021/11/13 10:22:15;;;;;;;5.40;4.40;;;13.20;96.40;;;;;;5055131;28;20964;-71
2021/11/13 10:24:46;;;;;;;5.07;4.53;;;13.30;96.40;;;;;;5055461;28;20457;-71
2021/11/13 10:27:12;;;;;;;4.23;3.87;;;13.40;96.30;;;;;;5056215;28;20760;-71
2021/11/13 10:29:41;;;;;;;4.90;4.40;;;13.50;96.20;;;;;;5055335;28;20446;-71
2021/11/13 10:32:11;;;;;;;3.77;3.57;;;13.60;96.10;;;;;;5055394;28;20507;-71
2021/11/13 10:34:41;;;;;;;5.30;4.07;;;13.70;95.60;;;;;;5054791;28;20481;-71
2021/11/13 10:37:10;;;;;;;4.50;4.17;;;13.70;95.20;;;;;;5055164;28;20473;-71
2021/11/13 10:39:40;;;;;;;4.87;4.23;;;13.80;95.30;;;;;;5055682;28;20801;-71
2021/11/13 10:42:11;;;;;;;5.10;4.60;;;13.80;95.00;;;;;;5054983;28;20461;-71
2021/11/13 10:44:39;;;;;;;5.07;4.57;;;13.80;94.80;;;;;;5055063;28;20536;-71
2021/11/13 10:47:11;;;;;;;6.70;4.50;;;13.80;94.70;;;;;;5054978;28;20457;-71
2021/11/13 10:49:37;;;;;;;5.20;4.80;;;13.90;94.90;;;;;;5054988;28;20426;-71
2021/11/13 10:52:06;;;;;;;5.40;5.00;;;13.90;94.90;;;;;;5054889;28;20445;-71
2021/11/13 10:54:34;;;;;;;5.70;5.10;;;14.00;94.80;;;;;;5054769;28;20481;-71
2021/11/13 10:57:05;;;;;;;6.97;5.57;;;14.00;94.30;;;;;;5054865;28;20453;-71
2021/11/13 10:59:34;;;;;;;6.97;5.53;;;13.90;94.20;;;;;;5054140;28;20918;-71
2021/11/13 11:02:03;;;;;;;5.93;5.33;;;13.80;94.10;;;;;;5054864;28;20430;-71
2021/11/13 11:04:31;;;;;;;5.87;5.37;;;13.70;94.40;;;;;;5054709;28;20477;-71
2021/11/13 11:07:05;;;;;;;5.37;4.93;;;13.60;94.70;;;;;;5054691;28;20445;-71
2021/11/13 11:09:33;;;;;;;6.23;5.67;;;13.50;94.90;;;;;;5054660;28;20429;-71
2021/11/13 11:12:06;;;;;;;6.30;5.77;;;13.60;95.10;;;;;;5054698;28;20446;-71
2021/11/13 11:14:33;;;;;;;6.40;5.80;;;13.50;95.20;;;;;;5054185;28;20989;-71
2021/11/13 11:17:02;;;;;;;6.97;6.03;;;13.40;95.30;;;;;;5054111;28;20452;-71
2021/11/13 11:19:30;;;;;;;6.17;5.60;;;13.40;95.50;;;;;;5054221;28;20452;-71
2021/11/13 11:22:06;;;;;;;6.30;5.80;;;13.40;95.70;;;;;;5054298;28;20453;-72
2021/11/13 11:24:42;;;;;;;6.50;6.00;;;13.30;95.50;;;;;;5054206;28;20464;-72
2021/11/13 11:27:14;;;;;;;8.60;7.28;;;13.40;95.40;;;;;;5053435;28;20428;-73
2021/11/13 11:29:52;;;;;;;6.83;6.00;;;13.40;95.50;;;;;;5054777;28;20191;-73
2021/11/13 11:32:20;;;;;;;7.07;5.90;;;13.50;96.00;;;;;;5054001;28;20426;-73
2021/11/13 11:34:49;;;;;;;8.13;7.10;;;13.60;95.80;;;;;;5054011;28;20485;-73
2021/11/13 11:37:18;;;;;;;7.60;6.60;;;13.60;95.70;;;;;;5054098;28;20453;-73
2021/11/13 11:39:48;;;;;;;7.50;6.80;;;13.70;95.70;;;;;;5053798;28;20439;-71
2021/11/13 11:42:16;;;;;;;6.90;6.30;;;13.70;95.40;;;;;;5054007;28;20481;-71
2021/11/13 11:44:46;;;;;;;7.63;6.60;;;13.70;95.20;;;;;;5053587;28;20516;-71
2021/11/13 11:47:15;;;;;;;6.67;6.07;;;13.80;95.20;;;;;;5053622;28;20445;-71
2021/11/13 11:49:44;;;;;;;9.67;6.13;;;13.70;95.00;;;;;;5054141;28;20453;-71
2021/11/13 11:52:13;;;;;;;8.33;6.40;;;13.60;95.00;;;;;;5053632;28;20529;-71
2021/11/13 11:54:40;;;;;;;7.10;6.17;;;13.60;95.30;;;;;;5053886;28;20489;-70
2021/11/13 11:57:08;;;;;;;7.83;6.70;;;13.50;95.50;;;;;;5053665;28;20948;-70
2021/11/13 11:59:37;;;;;;;9.23;6.30;;;13.50;95.80;;;;;;5053752;28;20515;-70
2021/11/13 12:02:13;;;;;;;11.17;7.03;;;13.50;95.90;;;;;;5053708;28;20450;-70
2021/11/13 12:04:41;;;;;;;7.77;6.23;;;13.40;96.10;;;;;;5053407;28;20481;-70
2021/11/13 12:07:09;;;;;;;6.90;6.30;;;13.40;96.30;;;;;;5053056;28;20449;-70
2021/11/13 12:10:04;;;;;;;10.77;7.10;;;13.40;96.40;;;;;;5053274;28;20453;-70
2021/11/13 12:12:31;;;;;;;8.40;7.60;;;13.30;96.50;;;;;;5051990;28;20528;-70
2021/11/13 12:15:21;;;;;;;9.40;7.03;;;13.30;96.60;;;;;;5053469;28;20484;-69
2021/11/13 12:17:50;;;;;;;9.30;6.20;;;13.30;96.70;;;;;;5053685;28;20472;-69
2021/11/13 12:20:23;;;;;;;8.80;7.23;;;13.30;97.10;;;;;;5053750;28;20875;-69
2021/11/13 12:22:53;;;;;;;8.90;7.03;;;13.20;96.80;;;;;;5053642;28;20434;-69
2021/11/13 12:25:23;;;;;;;8.80;7.00;;;13.20;96.70;;;;;;5053897;28;20953;-68
2021/11/13 12:28:11;;;;;;;8.87;7.10;;;13.30;96.80;;;;;;5054034;28;20516;-69
2021/11/13 12:30:43;;;;;;;8.10;7.30;;;13.30;96.80;;;;;;5053734;28;20461;-69
2021/11/13 12:33:49;;;;;;;7.90;7.20;;;13.30;96.80;;;;;;5053323;28;20426;-68
2021/11/13 12:36:19;;;;;;;8.20;7.43;;;13.30;96.70;;;;;;5053406;28;20449;-68
2021/11/13 12:38:52;;;;;;;8.10;7.30;;;13.30;97.30;;;;;;5053162;28;20434;-68
2021/11/13 12:41:21;;;;;;;11.23;7.87;;;13.30;97.00;;;;;;5053372;28;20452;-68
2021/11/13 12:44:14;;;;;;;9.40;7.70;;;13.20;97.30;;;;;;5053161;28;20468;-68
2021/11/13 12:46:45;;;;;;;8.87;7.23;;;13.20;97.40;;;;;;5053008;28;20430;-68
2021/11/13 12:49:47;;;;;;;8.10;7.13;;;13.20;97.60;;;;;;5053147;28;20438;-68